Terminal Aerodrome Forecast
Issued by NWS Northern Indiana

Home | Current Version | Previous Version | Text Only | Print | Product List | Glossary On
Versions: 1 2 3 4 5 6 7 8 9 10 11 12 13
000
FTUS43 KIWX 291120
TAFFWA
TAF
KFWA 291120Z 2912/3012 04004KT P6SM SCT010 OVC020
     FM292000 05009KT 6SM SHRA OVC050
     FM300000 04009KT 5SM -SHRA BR OVC015
     FM300600 06009KT 3SM -SHRA BR OVC008=

USA.gov is the U.S. government's official web portal to all federal, state and local government web resources and services.